sensor_id;sensor_type;location;lat;lon;timestamp;temperature;humidity
12043;DHT22;6082;49.306;12.862;2023-10-13T00:01:22;15.80;99.90
12043;DHT22;6082;49.306;12.862;2023-10-13T00:03:49;15.80;99.90
12043;DHT22;6082;49.306;12.862;2023-10-13T00:06:14;15.80;99.90
12043;DHT22;6082;49.306;12.862;2023-10-13T00:08:41;15.80;99.90
12043;DHT22;6082;49.306;12.862;2023-10-13T00:11:14;15.80;99.90
12043;DHT22;6082;49.306;12.862;2023-10-13T00:13:40;15.80;99.90
12043;DHT22;6082;49.306;12.862;2023-10-13T00:16:08;15.80;99.90
12043;DHT22;6082;49.306;12.862;2023-10-13T00:18:42;15.70;99.90
12043;DHT22;6082;49.306;12.862;2023-10-13T00:21:10;15.70;99.90
12043;DHT22;6082;49.306;12.862;2023-10-13T00:23:40;15.70;99.90
12043;DHT22;6082;49.306;12.862;2023-10-13T00:26:18;15.70;99.90
12043;DHT22;6082;49.306;12.862;2023-10-13T00:28:44;15.70;99.90
12043;DHT22;6082;49.306;12.862;2023-10-13T00:31:12;15.70;99.90
12043;DHT22;6082;49.306;12.862;2023-10-13T00:33:42;15.60;99.90
12043;DHT22;6082;49.306;12.862;2023-10-13T00:36:08;15.70;99.90
12043;DHT22;6082;49.306;12.862;2023-10-13T00:38:42;15.60;99.90
12043;DHT22;6082;49.306;12.862;2023-10-13T00:41:08;15.60;99.90
12043;DHT22;6082;49.306;12.862;2023-10-13T00:43:47;15.60;99.90
12043;DHT22;6082;49.306;12.862;2023-10-13T00:46:34;15.60;99.90
12043;DHT22;6082;49.306;12.862;2023-10-13T00:49:01;15.60;99.90
12043;DHT22;6082;49.306;12.862;2023-10-13T00:51:30;15.60;99.90
12043;DHT22;6082;49.306;12.862;2023-10-13T00:54:07;15.60;99.90
12043;DHT22;6082;49.306;12.862;2023-10-13T00:56:41;15.60;99.90
12043;DHT22;6082;49.306;12.862;2023-10-13T00:59:13;15.60;99.90
12043;DHT22;6082;49.306;12.862;2023-10-13T01:01:40;15.60;99.90
12043;DHT22;6082;49.306;12.862;2023-10-13T01:04:08;15.60;99.90
12043;DHT22;6082;49.306;12.862;2023-10-13T01:06:37;15.60;99.90
12043;DHT22;6082;49.306;12.862;2023-10-13T01:09:10;15.60;99.90
12043;DHT22;6082;49.306;12.862;2023-10-13T01:11:39;15.60;99.90
12043;DHT22;6082;49.306;12.862;2023-10-13T01:14:05;15.60;99.90
12043;DHT22;6082;49.306;12.862;2023-10-13T01:16:31;15.60;99.90
12043;DHT22;6082;49.306;12.862;2023-10-13T01:18:57;15.60;99.90
12043;DHT22;6082;49.306;12.862;2023-10-13T01:21:26;15.60;99.90
12043;DHT22;6082;49.306;12.862;2023-10-13T01:23:55;15.60;99.90
12043;DHT22;6082;49.306;12.862;2023-10-13T01:26:21;15.60;99.90
12043;DHT22;6082;49.306;12.862;2023-10-13T01:28:51;15.50;99.90
12043;DHT22;6082;49.306;12.862;2023-10-13T01:31:17;15.50;99.90
12043;DHT22;6082;49.306;12.862;2023-10-13T01:33:51;15.60;99.90
12043;DHT22;6082;49.306;12.862;2023-10-13T01:36:21;15.60;99.90
12043;DHT22;6082;49.306;12.862;2023-10-13T01:38:47;15.50;99.90
12043;DHT22;6082;49.306;12.862;2023-10-13T01:41:13;15.60;99.90
12043;DHT22;6082;49.306;12.862;2023-10-13T01:43:39;15.60;99.90
12043;DHT22;6082;49.306;12.862;2023-10-13T01:46:05;15.60;99.90
12043;DHT22;6082;49.306;12.862;2023-10-13T01:48:30;15.60;99.90
12043;DHT22;6082;49.306;12.862;2023-10-13T01:51:04;15.60;99.90
12043;DHT22;6082;49.306;12.862;2023-10-13T01:53:31;15.60;99.90
12043;DHT22;6082;49.306;12.862;2023-10-13T01:55:57;15.60;99.90
12043;DHT22;6082;49.306;12.862;2023-10-13T01:58:24;15.60;99.90
12043;DHT22;6082;49.306;12.862;2023-10-13T02:00:51;15.60;99.90
12043;DHT22;6082;49.306;12.862;2023-10-13T02:03:17;15.60;99.90
12043;DHT22;6082;49.306;12.862;2023-10-13T02:05:44;15.60;99.90
12043;DHT22;6082;49.306;12.862;2023-10-13T02:08:22;15.60;99.90
12043;DHT22;6082;49.306;12.862;2023-10-13T02:10:52;15.60;99.90
12043;DHT22;6082;49.306;12.862;2023-10-13T02:13:19;15.60;99.90
12043;DHT22;6082;49.306;12.862;2023-10-13T02:15:46;15.60;99.90
12043;DHT22;6082;49.306;12.862;2023-10-13T02:18:19;15.70;99.90
12043;DHT22;6082;49.306;12.862;2023-10-13T02:21:03;15.60;99.90
12043;DHT22;6082;49.306;12.862;2023-10-13T02:23:38;15.70;99.90
12043;DHT22;6082;49.306;12.862;2023-10-13T02:26:09;15.60;99.90
12043;DHT22;6082;49.306;12.862;2023-10-13T02:28:41;15.70;99.90
12043;DHT22;6082;49.306;12.862;2023-10-13T02:31:07;15.70;99.90
12043;DHT22;6082;49.306;12.862;2023-10-13T02:33:33;15.70;99.90
12043;DHT22;6082;49.306;12.862;2023-10-13T02:36:02;15.70;99.90
12043;DHT22;6082;49.306;12.862;2023-10-13T02:38:32;15.70;99.90
12043;DHT22;6082;49.306;12.862;2023-10-13T02:41:04;15.70;99.90
12043;DHT22;6082;49.306;12.862;2023-10-13T02:43:35;15.70;99.90
12043;DHT22;6082;49.306;12.862;2023-10-13T02:46:02;15.60;99.90
12043;DHT22;6082;49.306;12.862;2023-10-13T02:48:28;15.60;99.90
12043;DHT22;6082;49.306;12.862;2023-10-13T02:50:59;15.70;99.90
12043;DHT22;6082;49.306;12.862;2023-10-13T02:53:32;15.60;99.90
12043;DHT22;6082;49.306;12.862;2023-10-13T02:55:58;15.60;99.90
12043;DHT22;6082;49.306;12.862;2023-10-13T02:58:30;15.60;99.90
12043;DHT22;6082;49.306;12.862;2023-10-13T03:01:07;15.60;99.90
12043;DHT22;6082;49.306;12.862;2023-10-13T03:03:50;15.60;99.90
12043;DHT22;6082;49.306;12.862;2023-10-13T03:06:18;15.60;99.90
12043;DHT22;6082;49.306;12.862;2023-10-13T03:08:49;15.60;99.90
12043;DHT22;6082;49.306;12.862;2023-10-13T03:11:15;15.60;99.90
12043;DHT22;6082;49.306;12.862;2023-10-13T03:13:47;15.60;99.90
12043;DHT22;6082;49.306;12.862;2023-10-13T03:16:16;15.60;99.90
12043;DHT22;6082;49.306;12.862;2023-10-13T03:18:48;15.60;99.90
12043;DHT22;6082;49.306;12.862;2023-10-13T03:21:20;15.60;99.90
12043;DHT22;6082;49.306;12.862;2023-10-13T03:23:56;15.60;99.90
12043;DHT22;6082;49.306;12.862;2023-10-13T03:26:24;15.60;99.90
12043;DHT22;6082;49.306;12.862;2023-10-13T03:28:49;15.60;99.90
12043;DHT22;6082;49.306;12.862;2023-10-13T03:31:20;15.60;99.90
12043;DHT22;6082;49.306;12.862;2023-10-13T03:33:53;15.60;99.90
12043;DHT22;6082;49.306;12.862;2023-10-13T03:36:25;15.60;99.90
12043;DHT22;6082;49.306;12.862;2023-10-13T03:39:09;15.60;99.90
12043;DHT22;6082;49.306;12.862;2023-10-13T03:41:36;15.60;99.90
12043;DHT22;6082;49.306;12.862;2023-10-13T03:44:04;15.60;99.90
12043;DHT22;6082;49.306;12.862;2023-10-13T03:46:44;15.60;99.90
12043;DHT22;6082;49.306;12.862;2023-10-13T03:49:14;15.60;99.90
12043;DHT22;6082;49.306;12.862;2023-10-13T03:51:40;15.60;99.90
12043;DHT22;6082;49.306;12.862;2023-10-13T03:54:06;15.60;99.90
12043;DHT22;6082;49.306;12.862;2023-10-13T03:56:34;15.60;99.90
12043;DHT22;6082;49.306;12.862;2023-10-13T03:59:07;15.60;99.90
12043;DHT22;6082;49.306;12.862;2023-10-13T04:01:43;15.60;99.90
12043;DHT22;6082;49.306;12.862;2023-10-13T04:04:14;15.60;99.90
12043;DHT22;6082;49.306;12.862;2023-10-13T04:06:58;15.60;99.90
12043;DHT22;6082;49.306;12.862;2023-10-13T04:09:47;15.60;99.90
12043;DHT22;6082;49.306;12.862;2023-10-13T04:12:12;15.60;99.90
12043;DHT22;6082;49.306;12.862;2023-10-13T04:14:44;15.60;99.90
12043;DHT22;6082;49.306;12.862;2023-10-13T04:17:29;15.60;99.90
12043;DHT22;6082;49.306;12.862;2023-10-13T04:20:00;15.60;99.90
12043;DHT22;6082;49.306;12.862;2023-10-13T04:22:36;15.60;99.90
12043;DHT22;6082;49.306;12.862;2023-10-13T04:25:37;15.60;99.90
12043;DHT22;6082;49.306;12.862;2023-10-13T04:28:08;15.60;99.90
12043;DHT22;6082;49.306;12.862;2023-10-13T04:33:21;15.60;99.90
12043;DHT22;6082;49.306;12.862;2023-10-13T04:36:10;15.60;99.90
12043;DHT22;6082;49.306;12.862;2023-10-13T04:38:43;15.60;99.90
12043;DHT22;6082;49.306;12.862;2023-10-13T04:41:29;15.60;99.90
12043;DHT22;6082;49.306;12.862;2023-10-13T04:44:12;15.60;99.90
12043;DHT22;6082;49.306;12.862;2023-10-13T04:47:13;15.60;99.90
12043;DHT22;6082;49.306;12.862;2023-10-13T04:49:47;15.50;99.90
12043;DHT22;6082;49.306;12.862;2023-10-13T04:52:12;15.60;99.90
12043;DHT22;6082;49.306;12.862;2023-10-13T04:54:52;15.60;99.90
12043;DHT22;6082;49.306;12.862;2023-10-13T04:57:21;15.60;99.90
12043;DHT22;6082;49.306;12.862;2023-10-13T05:00:06;15.60;99.90
12043;DHT22;6082;49.306;12.862;2023-10-13T05:02:45;15.60;99.90
12043;DHT22;6082;49.306;12.862;2023-10-13T05:05:26;15.50;99.90
12043;DHT22;6082;49.306;12.862;2023-10-13T05:08:13;15.50;99.90
12043;DHT22;6082;49.306;12.862;2023-10-13T05:10:57;15.50;99.90
12043;DHT22;6082;49.306;12.862;2023-10-13T05:14:00;15.50;99.90
12043;DHT22;6082;49.306;12.862;2023-10-13T05:16:45;15.50;99.90
12043;DHT22;6082;49.306;12.862;2023-10-13T05:19:28;15.60;99.90
12043;DHT22;6082;49.306;12.862;2023-10-13T05:22:13;15.60;99.90
12043;DHT22;6082;49.306;12.862;2023-10-13T05:24:57;15.60;99.90
12043;DHT22;6082;49.306;12.862;2023-10-13T05:27:41;15.60;99.90
12043;DHT22;6082;49.306;12.862;2023-10-13T05:30:25;15.60;99.90
12043;DHT22;6082;49.306;12.862;2023-10-13T05:33:09;15.60;99.90
12043;DHT22;6082;49.306;12.862;2023-10-13T05:35:53;15.60;99.90
12043;DHT22;6082;49.306;12.862;2023-10-13T05:38:37;15.60;99.90
12043;DHT22;6082;49.306;12.862;2023-10-13T05:41:22;15.60;99.90
12043;DHT22;6082;49.306;12.862;2023-10-13T05:44:06;15.60;99.90
12043;DHT22;6082;49.306;12.862;2023-10-13T05:46:50;15.60;99.90
12043;DHT22;6082;49.306;12.862;2023-10-13T05:49:34;15.60;99.90
12043;DHT22;6082;49.306;12.862;2023-10-13T05:52:16;15.60;99.90
12043;DHT22;6082;49.306;12.862;2023-10-13T05:54:47;15.60;99.90
12043;DHT22;6082;49.306;12.862;2023-10-13T05:57:33;15.60;99.90
12043;DHT22;6082;49.306;12.862;2023-10-13T06:00:18;15.60;99.90
12043;DHT22;6082;49.306;12.862;2023-10-13T06:03:02;15.60;99.90
12043;DHT22;6082;49.306;12.862;2023-10-13T06:05:48;15.70;99.90
12043;DHT22;6082;49.306;12.862;2023-10-13T06:08:33;15.70;99.90
12043;DHT22;6082;49.306;12.862;2023-10-13T06:11:17;15.70;99.90
12043;DHT22;6082;49.306;12.862;2023-10-13T06:14:01;15.70;99.90
12043;DHT22;6082;49.306;12.862;2023-10-13T06:16:45;15.70;99.90
12043;DHT22;6082;49.306;12.862;2023-10-13T06:19:29;15.70;99.90
12043;DHT22;6082;49.306;12.862;2023-10-13T06:22:13;15.60;99.90
12043;DHT22;6082;49.306;12.862;2023-10-13T06:24:57;15.60;99.90
12043;DHT22;6082;49.306;12.862;2023-10-13T06:27:41;15.60;99.90
12043;DHT22;6082;49.306;12.862;2023-10-13T06:30:25;15.60;99.90
12043;DHT22;6082;49.306;12.862;2023-10-13T06:32:51;15.70;99.90
12043;DHT22;6082;49.306;12.862;2023-10-13T06:35:16;15.60;99.90
12043;DHT22;6082;49.306;12.862;2023-10-13T06:37:48;15.60;99.90
12043;DHT22;6082;49.306;12.862;2023-10-13T06:40:14;15.70;99.90
12043;DHT22;6082;49.306;12.862;2023-10-13T06:42:59;15.70;99.90
12043;DHT22;6082;49.306;12.862;2023-10-13T06:45:38;15.70;99.90
12043;DHT22;6082;49.306;12.862;2023-10-13T06:48:05;15.70;99.90
12043;DHT22;6082;49.306;12.862;2023-10-13T06:50:31;15.70;99.90
12043;DHT22;6082;49.306;12.862;2023-10-13T06:53:05;15.80;99.90
12043;DHT22;6082;49.306;12.862;2023-10-13T06:55:30;15.80;99.90
12043;DHT22;6082;49.306;12.862;2023-10-13T06:58:03;15.80;99.90
12043;DHT22;6082;49.306;12.862;2023-10-13T07:00:32;15.80;99.90
12043;DHT22;6082;49.306;12.862;2023-10-13T07:03:04;15.90;99.90
12043;DHT22;6082;49.306;12.862;2023-10-13T07:05:40;15.90;99.90
12043;DHT22;6082;49.306;12.862;2023-10-13T07:08:09;16.00;99.90
12043;DHT22;6082;49.306;12.862;2023-10-13T07:10:48;16.00;99.90
12043;DHT22;6082;49.306;12.862;2023-10-13T07:13:19;16.00;99.90
12043;DHT22;6082;49.306;12.862;2023-10-13T07:15:45;16.10;99.90
12043;DHT22;6082;49.306;12.862;2023-10-13T07:18:15;16.10;99.90
12043;DHT22;6082;49.306;12.862;2023-10-13T07:20:43;16.20;99.90
12043;DHT22;6082;49.306;12.862;2023-10-13T07:23:12;16.20;99.90
12043;DHT22;6082;49.306;12.862;2023-10-13T07:25:56;16.30;99.90
12043;DHT22;6082;49.306;12.862;2023-10-13T07:28:31;16.30;99.90
12043;DHT22;6082;49.306;12.862;2023-10-13T07:31:04;16.30;99.90
12043;DHT22;6082;49.306;12.862;2023-10-13T07:33:30;16.30;99.90
12043;DHT22;6082;49.306;12.862;2023-10-13T07:38:37;16.40;99.90
12043;DHT22;6082;49.306;12.862;2023-10-13T07:41:03;16.40;99.90
12043;DHT22;6082;49.306;12.862;2023-10-13T07:43:38;16.40;99.90
12043;DHT22;6082;49.306;12.862;2023-10-13T07:46:05;16.50;99.90
12043;DHT22;6082;49.306;12.862;2023-10-13T07:48:38;16.50;99.90
12043;DHT22;6082;49.306;12.862;2023-10-13T07:51:08;16.50;99.90
12043;DHT22;6082;49.306;12.862;2023-10-13T07:53:45;16.60;99.90
12043;DHT22;6082;49.306;12.862;2023-10-13T07:56:14;16.60;99.90
12043;DHT22;6082;49.306;12.862;2023-10-13T07:58:44;16.70;99.90
12043;DHT22;6082;49.306;12.862;2023-10-13T08:01:26;16.80;99.90
12043;DHT22;6082;49.306;12.862;2023-10-13T08:03:52;16.80;99.90
12043;DHT22;6082;49.306;12.862;2023-10-13T08:06:44;16.90;99.90
12043;DHT22;6082;49.306;12.862;2023-10-13T08:09:10;17.00;99.90
12043;DHT22;6082;49.306;12.862;2023-10-13T08:11:57;17.00;99.90
12043;DHT22;6082;49.306;12.862;2023-10-13T08:14:22;17.10;99.90
12043;DHT22;6082;49.306;12.862;2023-10-13T08:16:49;17.20;99.90
12043;DHT22;6082;49.306;12.862;2023-10-13T08:19:26;17.30;99.90
12043;DHT22;6082;49.306;12.862;2023-10-13T08:22:11;17.30;99.90
12043;DHT22;6082;49.306;12.862;2023-10-13T08:24:43;17.40;99.90
12043;DHT22;6082;49.306;12.862;2023-10-13T08:27:09;17.50;99.90
12043;DHT22;6082;49.306;12.862;2023-10-13T08:29:47;17.50;99.90
12043;DHT22;6082;49.306;12.862;2023-10-13T08:32:22;17.60;99.90
12043;DHT22;6082;49.306;12.862;2023-10-13T08:34:58;17.60;99.90
12043;DHT22;6082;49.306;12.862;2023-10-13T08:37:25;17.70;99.90
12043;DHT22;6082;49.306;12.862;2023-10-13T08:39:52;17.80;99.90
12043;DHT22;6082;49.306;12.862;2023-10-13T08:42:29;17.80;99.90
12043;DHT22;6082;49.306;12.862;2023-10-13T08:45:11;17.90;99.90
12043;DHT22;6082;49.306;12.862;2023-10-13T08:48:05;18.10;99.90
12043;DHT22;6082;49.306;12.862;2023-10-13T08:50:45;18.10;99.90
12043;DHT22;6082;49.306;12.862;2023-10-13T08:53:29;18.20;99.90
12043;DHT22;6082;49.306;12.862;2023-10-13T08:56:14;18.20;99.90
12043;DHT22;6082;49.306;12.862;2023-10-13T08:58:45;18.30;99.90
12043;DHT22;6082;49.306;12.862;2023-10-13T09:01:31;18.40;99.90
12043;DHT22;6082;49.306;12.862;2023-10-13T09:09:32;18.50;99.90
12043;DHT22;6082;49.306;12.862;2023-10-13T09:12:11;18.60;99.90
12043;DHT22;6082;49.306;12.862;2023-10-13T09:14:41;18.70;99.90
12043;DHT22;6082;49.306;12.862;2023-10-13T09:17:14;18.70;99.90
12043;DHT22;6082;49.306;12.862;2023-10-13T09:19:50;18.80;99.90
12043;DHT22;6082;49.306;12.862;2023-10-13T09:22:26;18.90;99.90
12043;DHT22;6082;49.306;12.862;2023-10-13T09:25:03;19.00;99.90
12043;DHT22;6082;49.306;12.862;2023-10-13T09:27:39;19.00;99.90
12043;DHT22;6082;49.306;12.862;2023-10-13T09:30:06;19.10;99.90
12043;DHT22;6082;49.306;12.862;2023-10-13T09:32:46;19.10;99.90
12043;DHT22;6082;49.306;12.862;2023-10-13T09:35:19;19.30;99.90
12043;DHT22;6082;49.306;12.862;2023-10-13T09:37:49;19.30;99.90
12043;DHT22;6082;49.306;12.862;2023-10-13T09:40:17;19.40;99.90
12043;DHT22;6082;49.306;12.862;2023-10-13T09:42:59;19.40;99.90
12043;DHT22;6082;49.306;12.862;2023-10-13T09:45:31;19.50;99.90
12043;DHT22;6082;49.306;12.862;2023-10-13T09:48:32;19.50;99.90
12043;DHT22;6082;49.306;12.862;2023-10-13T09:51:03;19.60;99.90
12043;DHT22;6082;49.306;12.862;2023-10-13T09:53:35;19.70;99.90
12043;DHT22;6082;49.306;12.862;2023-10-13T09:56:14;19.80;99.90
12043;DHT22;6082;49.306;12.862;2023-10-13T09:59:02;19.80;99.90
12043;DHT22;6082;49.306;12.862;2023-10-13T10:01:39;19.80;99.90
12043;DHT22;6082;49.306;12.862;2023-10-13T10:04:14;19.90;99.90
12043;DHT22;6082;49.306;12.862;2023-10-13T10:06:56;20.00;99.90
12043;DHT22;6082;49.306;12.862;2023-10-13T10:09:32;20.10;99.90
12043;DHT22;6082;49.306;12.862;2023-10-13T10:17:28;20.30;99.90
12043;DHT22;6082;49.306;12.862;2023-10-13T10:19:55;20.30;99.90
12043;DHT22;6082;49.306;12.862;2023-10-13T10:22:31;20.40;99.90
12043;DHT22;6082;49.306;12.862;2023-10-13T10:25:05;20.40;99.90
12043;DHT22;6082;49.306;12.862;2023-10-13T10:28:01;20.50;99.90
12043;DHT22;6082;49.306;12.862;2023-10-13T10:30:27;20.50;99.90
12043;DHT22;6082;49.306;12.862;2023-10-13T10:32:57;20.60;99.90
12043;DHT22;6082;49.306;12.862;2023-10-13T10:35:27;20.60;99.90
12043;DHT22;6082;49.306;12.862;2023-10-13T10:38:19;20.80;99.90
12043;DHT22;6082;49.306;12.862;2023-10-13T10:41:01;20.80;99.90
12043;DHT22;6082;49.306;12.862;2023-10-13T10:43:34;20.90;99.90
12043;DHT22;6082;49.306;12.862;2023-10-13T10:46:26;20.90;99.90
12043;DHT22;6082;49.306;12.862;2023-10-13T10:48:53;21.00;99.90
12043;DHT22;6082;49.306;12.862;2023-10-13T10:51:28;21.00;99.90
12043;DHT22;6082;49.306;12.862;2023-10-13T10:53:58;21.00;99.90
12043;DHT22;6082;49.306;12.862;2023-10-13T10:56:36;21.10;99.90
12043;DHT22;6082;49.306;12.862;2023-10-13T10:59:06;21.20;99.90
12043;DHT22;6082;49.306;12.862;2023-10-13T11:01:43;21.20;99.90
12043;DHT22;6082;49.306;12.862;2023-10-13T11:04:18;21.30;99.90
12043;DHT22;6082;49.306;12.862;2023-10-13T11:06:56;21.40;99.90
12043;DHT22;6082;49.306;12.862;2023-10-13T11:09:35;21.40;99.90
12043;DHT22;6082;49.306;12.862;2023-10-13T11:14:39;21.50;99.90
12043;DHT22;6082;49.306;12.862;2023-10-13T11:17:05;21.50;99.90
12043;DHT22;6082;49.306;12.862;2023-10-13T11:19:46;21.60;99.90
12043;DHT22;6082;49.306;12.862;2023-10-13T11:22:17;21.60;99.90
12043;DHT22;6082;49.306;12.862;2023-10-13T11:24:58;21.70;99.90
12043;DHT22;6082;49.306;12.862;2023-10-13T11:27:44;21.70;99.90
12043;DHT22;6082;49.306;12.862;2023-10-13T11:30:16;21.80;99.90
12043;DHT22;6082;49.306;12.862;2023-10-13T11:33:02;21.80;99.90
12043;DHT22;6082;49.306;12.862;2023-10-13T11:35:32;21.80;99.90
12043;DHT22;6082;49.306;12.862;2023-10-13T11:38:16;21.90;99.90
12043;DHT22;6082;49.306;12.862;2023-10-13T11:43:47;22.00;99.90
12043;DHT22;6082;49.306;12.862;2023-10-13T11:46:17;22.10;99.90
12043;DHT22;6082;49.306;12.862;2023-10-13T11:49:07;22.10;99.90
12043;DHT22;6082;49.306;12.862;2023-10-13T11:51:40;22.10;99.90
12043;DHT22;6082;49.306;12.862;2023-10-13T11:56:43;22.20;99.90
12043;DHT22;6082;49.306;12.862;2023-10-13T11:59:10;22.30;99.90
12043;DHT22;6082;49.306;12.862;2023-10-13T12:01:49;22.30;99.90
12043;DHT22;6082;49.306;12.862;2023-10-13T12:04:34;22.30;99.90
12043;DHT22;6082;49.306;12.862;2023-10-13T12:07:07;22.40;99.90
12043;DHT22;6082;49.306;12.862;2023-10-13T12:09:46;22.40;99.90
12043;DHT22;6082;49.306;12.862;2023-10-13T12:12:22;22.50;99.90
12043;DHT22;6082;49.306;12.862;2023-10-13T12:14:48;22.50;99.90
12043;DHT22;6082;49.306;12.862;2023-10-13T12:17:26;22.50;99.90
12043;DHT22;6082;49.306;12.862;2023-10-13T12:20:01;22.50;99.90
12043;DHT22;6082;49.306;12.862;2023-10-13T12:22:30;22.60;99.90
12043;DHT22;6082;49.306;12.862;2023-10-13T12:25:08;22.60;99.90
12043;DHT22;6082;49.306;12.862;2023-10-13T12:27:53;22.60;99.90
12043;DHT22;6082;49.306;12.862;2023-10-13T12:30:39;22.60;99.90
12043;DHT22;6082;49.306;12.862;2023-10-13T12:33:20;22.70;99.90
12043;DHT22;6082;49.306;12.862;2023-10-13T12:35:58;22.80;99.90
12043;DHT22;6082;49.306;12.862;2023-10-13T12:38:39;22.90;99.90
12043;DHT22;6082;49.306;12.862;2023-10-13T12:41:18;22.90;99.90
12043;DHT22;6082;49.306;12.862;2023-10-13T12:44:03;23.00;99.90
12043;DHT22;6082;49.306;12.862;2023-10-13T12:46:48;23.00;99.90
12043;DHT22;6082;49.306;12.862;2023-10-13T12:49:33;23.00;99.90
12043;DHT22;6082;49.306;12.862;2023-10-13T12:52:12;23.00;99.90
12043;DHT22;6082;49.306;12.862;2023-10-13T12:54:56;23.00;99.90
12043;DHT22;6082;49.306;12.862;2023-10-13T12:57:26;23.00;99.90
12043;DHT22;6082;49.306;12.862;2023-10-13T12:59:51;23.00;99.90
12043;DHT22;6082;49.306;12.862;2023-10-13T13:02:21;23.00;99.90
12043;DHT22;6082;49.306;12.862;2023-10-13T13:04:47;23.00;99.90
12043;DHT22;6082;49.306;12.862;2023-10-13T13:07:18;23.00;99.90
12043;DHT22;6082;49.306;12.862;2023-10-13T13:09:44;23.00;99.90
12043;DHT22;6082;49.306;12.862;2023-10-13T13:12:09;23.00;99.90
12043;DHT22;6082;49.306;12.862;2023-10-13T13:14:38;23.00;99.90
12043;DHT22;6082;49.306;12.862;2023-10-13T13:17:07;23.00;99.90
12043;DHT22;6082;49.306;12.862;2023-10-13T13:19:37;23.00;99.90
12043;DHT22;6082;49.306;12.862;2023-10-13T13:22:05;23.00;99.90
12043;DHT22;6082;49.306;12.862;2023-10-13T13:24:40;23.00;99.90
12043;DHT22;6082;49.306;12.862;2023-10-13T13:27:14;22.90;99.90
12043;DHT22;6082;49.306;12.862;2023-10-13T13:29:43;22.90;99.90
12043;DHT22;6082;49.306;12.862;2023-10-13T13:32:09;22.90;99.90
12043;DHT22;6082;49.306;12.862;2023-10-13T13:34:44;23.00;99.90
12043;DHT22;6082;49.306;12.862;2023-10-13T13:37:10;23.00;99.90
12043;DHT22;6082;49.306;12.862;2023-10-13T13:39:38;23.00;99.90
12043;DHT22;6082;49.306;12.862;2023-10-13T13:42:09;23.00;99.90
12043;DHT22;6082;49.306;12.862;2023-10-13T13:44:35;23.10;99.90
12043;DHT22;6082;49.306;12.862;2023-10-13T13:47:04;23.10;99.90
12043;DHT22;6082;49.306;12.862;2023-10-13T13:49:40;23.10;99.90
12043;DHT22;6082;49.306;12.862;2023-10-13T13:52:11;23.20;99.90
12043;DHT22;6082;49.306;12.862;2023-10-13T13:54:43;23.30;99.90
12043;DHT22;6082;49.306;12.862;2023-10-13T13:57:09;23.30;99.90
12043;DHT22;6082;49.306;12.862;2023-10-13T13:59:35;23.30;99.90
12043;DHT22;6082;49.306;12.862;2023-10-13T14:02:02;23.30;99.90
12043;DHT22;6082;49.306;12.862;2023-10-13T14:04:45;23.30;99.90
12043;DHT22;6082;49.306;12.862;2023-10-13T14:07:13;23.30;99.90
12043;DHT22;6082;49.306;12.862;2023-10-13T14:09:40;23.30;99.90
12043;DHT22;6082;49.306;12.862;2023-10-13T14:12:09;23.30;99.90
12043;DHT22;6082;49.306;12.862;2023-10-13T14:14:53;23.40;99.90
12043;DHT22;6082;49.306;12.862;2023-10-13T14:17:23;23.40;99.90
12043;DHT22;6082;49.306;12.862;2023-10-13T14:19:57;23.50;99.90
12043;DHT22;6082;49.306;12.862;2023-10-13T14:22:24;23.50;99.90
12043;DHT22;6082;49.306;12.862;2023-10-13T14:24:51;23.50;99.90
12043;DHT22;6082;49.306;12.862;2023-10-13T14:27:20;23.50;99.90
12043;DHT22;6082;49.306;12.862;2023-10-13T14:29:49;23.50;99.90
12043;DHT22;6082;49.306;12.862;2023-10-13T14:32:19;23.50;99.90
12043;DHT22;6082;49.306;12.862;2023-10-13T14:34:46;23.40;99.90
12043;DHT22;6082;49.306;12.862;2023-10-13T14:37:22;23.40;99.90
12043;DHT22;6082;49.306;12.862;2023-10-13T14:39:58;23.30;99.90
12043;DHT22;6082;49.306;12.862;2023-10-13T14:42:26;23.20;99.90
12043;DHT22;6082;49.306;12.862;2023-10-13T14:44:52;23.20;99.90
12043;DHT22;6082;49.306;12.862;2023-10-13T14:47:25;23.20;99.90
12043;DHT22;6082;49.306;12.862;2023-10-13T14:49:54;23.20;99.90
12043;DHT22;6082;49.306;12.862;2023-10-13T14:52:23;23.10;99.90
12043;DHT22;6082;49.306;12.862;2023-10-13T14:54:49;23.10;99.90
12043;DHT22;6082;49.306;12.862;2023-10-13T14:57:21;23.10;99.90
12043;DHT22;6082;49.306;12.862;2023-10-13T14:59:51;23.10;99.90
12043;DHT22;6082;49.306;12.862;2023-10-13T15:02:17;23.00;99.90
12043;DHT22;6082;49.306;12.862;2023-10-13T15:04:42;23.00;99.90
12043;DHT22;6082;49.306;12.862;2023-10-13T15:07:08;23.00;99.90
12043;DHT22;6082;49.306;12.862;2023-10-13T15:09:34;23.00;99.90
12043;DHT22;6082;49.306;12.862;2023-10-13T15:12:00;23.00;99.90
12043;DHT22;6082;49.306;12.862;2023-10-13T15:14:31;23.10;99.90
12043;DHT22;6082;49.306;12.862;2023-10-13T15:16:59;23.10;99.90
12043;DHT22;6082;49.306;12.862;2023-10-13T15:19:26;23.10;99.90
12043;DHT22;6082;49.306;12.862;2023-10-13T15:21:54;23.10;99.90
12043;DHT22;6082;49.306;12.862;2023-10-13T15:24:20;23.10;99.90
12043;DHT22;6082;49.306;12.862;2023-10-13T15:26:48;23.10;99.90
12043;DHT22;6082;49.306;12.862;2023-10-13T15:29:18;23.10;99.90
12043;DHT22;6082;49.306;12.862;2023-10-13T15:31:44;23.10;99.90
12043;DHT22;6082;49.306;12.862;2023-10-13T15:34:30;23.10;99.90
12043;DHT22;6082;49.306;12.862;2023-10-13T15:36:57;23.10;99.90
12043;DHT22;6082;49.306;12.862;2023-10-13T15:39:24;23.10;99.90
12043;DHT22;6082;49.306;12.862;2023-10-13T15:41:52;23.00;99.90
12043;DHT22;6082;49.306;12.862;2023-10-13T15:44:21;23.00;99.90
12043;DHT22;6082;49.306;12.862;2023-10-13T15:46:53;23.00;99.90
12043;DHT22;6082;49.306;12.862;2023-10-13T15:49:19;22.90;99.90
12043;DHT22;6082;49.306;12.862;2023-10-13T15:51:45;22.80;99.90
12043;DHT22;6082;49.306;12.862;2023-10-13T15:54:12;22.80;99.90
12043;DHT22;6082;49.306;12.862;2023-10-13T15:56:48;22.80;99.90
12043;DHT22;6082;49.306;12.862;2023-10-13T15:59:15;22.70;99.90
12043;DHT22;6082;49.306;12.862;2023-10-13T16:01:41;22.60;99.90
12043;DHT22;6082;49.306;12.862;2023-10-13T16:04:08;22.60;99.90
12043;DHT22;6082;49.306;12.862;2023-10-13T16:06:40;22.60;99.90
12043;DHT22;6082;49.306;12.862;2023-10-13T16:09:06;22.50;99.90
12043;DHT22;6082;49.306;12.862;2023-10-13T16:11:45;22.40;99.90
12043;DHT22;6082;49.306;12.862;2023-10-13T16:14:12;22.30;99.90
12043;DHT22;6082;49.306;12.862;2023-10-13T16:16:45;22.30;99.90
12043;DHT22;6082;49.306;12.862;2023-10-13T16:19:16;22.20;99.90
12043;DHT22;6082;49.306;12.862;2023-10-13T16:21:52;22.10;99.90
12043;DHT22;6082;49.306;12.862;2023-10-13T16:24:19;22.00;99.90
12043;DHT22;6082;49.306;12.862;2023-10-13T16:26:48;22.00;99.90
12043;DHT22;6082;49.306;12.862;2023-10-13T16:29:16;21.90;99.90
12043;DHT22;6082;49.306;12.862;2023-10-13T16:31:42;21.80;99.90
12043;DHT22;6082;49.306;12.862;2023-10-13T16:34:12;21.80;99.90